sensor_id;sensor_type;location;lat;lon;timestamp;P1;durP1;ratioP1;P2;durP2;ratioP2
26756;SDS011;23848;49.798;10.228;2022-11-25T00:01:16;13.10;;;7.25;;
26756;SDS011;23848;49.798;10.228;2022-11-25T00:03:46;12.82;;;6.40;;
26756;SDS011;23848;49.798;10.228;2022-11-25T00:06:15;10.77;;;7.07;;
26756;SDS011;23848;49.798;10.228;2022-11-25T00:08:46;9.70;;;5.60;;
26756;SDS011;23848;49.798;10.228;2022-11-25T00:11:15;8.35;;;5.75;;
26756;SDS011;23848;49.798;10.228;2022-11-25T00:13:44;9.82;;;6.95;;
26756;SDS011;23848;49.798;10.228;2022-11-25T00:16:13;13.02;;;7.95;;
26756;SDS011;23848;49.798;10.228;2022-11-25T00:18:42;12.65;;;7.07;;
26756;SDS011;23848;49.798;10.228;2022-11-25T00:21:12;10.77;;;6.80;;
26756;SDS011;23848;49.798;10.228;2022-11-25T00:23:41;11.77;;;6.53;;
26756;SDS011;23848;49.798;10.228;2022-11-25T00:26:11;13.57;;;6.95;;
26756;SDS011;23848;49.798;10.228;2022-11-25T00:28:40;10.77;;;6.53;;
26756;SDS011;23848;49.798;10.228;2022-11-25T00:31:10;12.55;;;7.55;;
26756;SDS011;23848;49.798;10.228;2022-11-25T00:33:39;11.80;;;7.72;;
26756;SDS011;23848;49.798;10.228;2022-11-25T00:36:11;15.40;;;8.55;;
26756;SDS011;23848;49.798;10.228;2022-11-25T00:38:41;14.05;;;8.23;;
26756;SDS011;23848;49.798;10.228;2022-11-25T00:41:11;13.27;;;8.00;;
26756;SDS011;23848;49.798;10.228;2022-11-25T00:43:58;13.25;;;7.75;;
26756;SDS011;23848;49.798;10.228;2022-11-25T00:46:44;15.05;;;7.95;;
26756;SDS011;23848;49.798;10.228;2022-11-25T00:49:12;15.75;;;7.72;;
26756;SDS011;23848;49.798;10.228;2022-11-25T00:51:41;13.23;;;8.60;;
26756;SDS011;23848;49.798;10.228;2022-11-25T00:54:09;14.02;;;7.78;;
26756;SDS011;23848;49.798;10.228;2022-11-25T00:56:39;17.45;;;8.63;;
26756;SDS011;23848;49.798;10.228;2022-11-25T00:59:08;13.95;;;7.72;;
26756;SDS011;23848;49.798;10.228;2022-11-25T01:01:36;12.30;;;6.93;;
26756;SDS011;23848;49.798;10.228;2022-11-25T01:04:05;10.43;;;6.53;;
26756;SDS011;23848;49.798;10.228;2022-11-25T01:06:33;12.45;;;7.22;;
26756;SDS011;23848;49.798;10.228;2022-11-25T01:09:02;11.73;;;6.82;;
26756;SDS011;23848;49.798;10.228;2022-11-25T01:11:31;10.20;;;6.85;;
26756;SDS011;23848;49.798;10.228;2022-11-25T01:14:00;11.32;;;6.60;;
26756;SDS011;23848;49.798;10.228;2022-11-25T01:16:29;11.43;;;6.25;;
26756;SDS011;23848;49.798;10.228;2022-11-25T01:18:58;14.05;;;6.60;;
26756;SDS011;23848;49.798;10.228;2022-11-25T01:21:27;13.32;;;6.07;;
26756;SDS011;23848;49.798;10.228;2022-11-25T01:23:57;9.38;;;6.10;;
26756;SDS011;23848;49.798;10.228;2022-11-25T01:26:26;10.43;;;5.93;;
26756;SDS011;23848;49.798;10.228;2022-11-25T01:28:55;7.85;;;5.60;;
26756;SDS011;23848;49.798;10.228;2022-11-25T01:31:26;9.35;;;6.07;;
26756;SDS011;23848;49.798;10.228;2022-11-25T01:33:55;9.70;;;5.97;;
26756;SDS011;23848;49.798;10.228;2022-11-25T01:36:24;11.50;;;5.63;;
26756;SDS011;23848;49.798;10.228;2022-11-25T01:38:54;9.68;;;5.82;;
26756;SDS011;23848;49.798;10.228;2022-11-25T01:41:23;11.32;;;6.40;;
26756;SDS011;23848;49.798;10.228;2022-11-25T01:44:05;11.10;;;5.35;;
26756;SDS011;23848;49.798;10.228;2022-11-25T01:46:43;10.50;;;5.30;;
26756;SDS011;23848;49.798;10.228;2022-11-25T01:49:13;14.80;;;6.75;;
26756;SDS011;23848;49.798;10.228;2022-11-25T01:51:45;9.02;;;5.53;;
26756;SDS011;23848;49.798;10.228;2022-11-25T01:54:14;10.90;;;5.40;;
26756;SDS011;23848;49.798;10.228;2022-11-25T01:56:45;12.18;;;6.50;;
26756;SDS011;23848;49.798;10.228;2022-11-25T01:59:16;13.20;;;6.75;;
26756;SDS011;23848;49.798;10.228;2022-11-25T02:01:46;10.40;;;6.43;;
26756;SDS011;23848;49.798;10.228;2022-11-25T02:04:15;11.10;;;6.15;;
26756;SDS011;23848;49.798;10.228;2022-11-25T02:06:46;11.23;;;7.72;;
26756;SDS011;23848;49.798;10.228;2022-11-25T02:09:15;16.15;;;7.60;;
26756;SDS011;23848;49.798;10.228;2022-11-25T02:11:45;13.27;;;7.68;;
26756;SDS011;23848;49.798;10.228;2022-11-25T02:14:15;11.27;;;7.10;;
26756;SDS011;23848;49.798;10.228;2022-11-25T02:16:46;12.70;;;7.95;;
26756;SDS011;23848;49.798;10.228;2022-11-25T02:19:16;12.90;;;7.03;;
26756;SDS011;23848;49.798;10.228;2022-11-25T02:21:49;8.85;;;5.97;;
26756;SDS011;23848;49.798;10.228;2022-11-25T02:24:20;9.43;;;6.10;;
26756;SDS011;23848;49.798;10.228;2022-11-25T02:26:52;10.05;;;5.32;;
26756;SDS011;23848;49.798;10.228;2022-11-25T02:29:20;12.63;;;6.28;;
26756;SDS011;23848;49.798;10.228;2022-11-25T02:31:49;8.55;;;5.28;;
26756;SDS011;23848;49.798;10.228;2022-11-25T02:34:18;9.45;;;5.65;;
26756;SDS011;23848;49.798;10.228;2022-11-25T02:36:46;10.93;;;6.57;;
26756;SDS011;23848;49.798;10.228;2022-11-25T02:39:15;10.43;;;6.03;;
26756;SDS011;23848;49.798;10.228;2022-11-25T02:41:45;9.48;;;5.97;;
26756;SDS011;23848;49.798;10.228;2022-11-25T02:44:18;10.70;;;5.90;;
26756;SDS011;23848;49.798;10.228;2022-11-25T02:46:46;10.00;;;5.35;;
26756;SDS011;23848;49.798;10.228;2022-11-25T02:49:15;8.18;;;5.43;;
26756;SDS011;23848;49.798;10.228;2022-11-25T02:51:43;11.07;;;5.47;;
26756;SDS011;23848;49.798;10.228;2022-11-25T02:54:12;9.80;;;5.47;;
26756;SDS011;23848;49.798;10.228;2022-11-25T02:56:41;10.02;;;5.72;;
26756;SDS011;23848;49.798;10.228;2022-11-25T02:59:10;12.93;;;5.90;;
26756;SDS011;23848;49.798;10.228;2022-11-25T03:01:39;10.02;;;6.05;;
26756;SDS011;23848;49.798;10.228;2022-11-25T03:04:08;9.73;;;5.15;;
26756;SDS011;23848;49.798;10.228;2022-11-25T03:06:36;7.75;;;5.00;;
26756;SDS011;23848;49.798;10.228;2022-11-25T03:09:05;10.40;;;4.97;;
26756;SDS011;23848;49.798;10.228;2022-11-25T03:11:37;9.27;;;5.70;;
26756;SDS011;23848;49.798;10.228;2022-11-25T03:14:23;8.98;;;5.22;;
26756;SDS011;23848;49.798;10.228;2022-11-25T03:16:53;7.97;;;5.18;;
26756;SDS011;23848;49.798;10.228;2022-11-25T03:19:21;9.77;;;5.15;;
26756;SDS011;23848;49.798;10.228;2022-11-25T03:21:50;7.82;;;5.00;;
26756;SDS011;23848;49.798;10.228;2022-11-25T03:24:18;8.05;;;4.85;;
26756;SDS011;23848;49.798;10.228;2022-11-25T03:26:46;9.98;;;5.47;;
26756;SDS011;23848;49.798;10.228;2022-11-25T03:29:15;9.13;;;4.93;;
26756;SDS011;23848;49.798;10.228;2022-11-25T03:31:43;7.68;;;5.18;;
26756;SDS011;23848;49.798;10.228;2022-11-25T03:34:13;8.63;;;5.30;;
26756;SDS011;23848;49.798;10.228;2022-11-25T03:36:41;10.23;;;5.65;;
26756;SDS011;23848;49.798;10.228;2022-11-25T03:39:10;9.77;;;5.35;;
26756;SDS011;23848;49.798;10.228;2022-11-25T03:41:38;7.32;;;5.40;;
26756;SDS011;23848;49.798;10.228;2022-11-25T03:44:07;9.00;;;5.60;;
26756;SDS011;23848;49.798;10.228;2022-11-25T03:46:35;8.73;;;4.68;;
26756;SDS011;23848;49.798;10.228;2022-11-25T03:49:04;8.55;;;4.72;;
26756;SDS011;23848;49.798;10.228;2022-11-25T03:51:34;9.25;;;4.88;;
26756;SDS011;23848;49.798;10.228;2022-11-25T03:54:02;10.88;;;6.18;;
26756;SDS011;23848;49.798;10.228;2022-11-25T03:56:30;9.43;;;5.82;;
26756;SDS011;23848;49.798;10.228;2022-11-25T03:58:59;10.85;;;5.57;;
26756;SDS011;23848;49.798;10.228;2022-11-25T04:01:27;13.32;;;5.72;;
26756;SDS011;23848;49.798;10.228;2022-11-25T04:03:56;10.50;;;5.47;;
26756;SDS011;23848;49.798;10.228;2022-11-25T04:06:24;10.30;;;5.70;;
26756;SDS011;23848;49.798;10.228;2022-11-25T04:08:54;11.20;;;5.85;;
26756;SDS011;23848;49.798;10.228;2022-11-25T04:11:22;8.82;;;4.97;;
26756;SDS011;23848;49.798;10.228;2022-11-25T04:14:11;10.75;;;5.60;;
26756;SDS011;23848;49.798;10.228;2022-11-25T04:16:39;10.05;;;6.25;;
26756;SDS011;23848;49.798;10.228;2022-11-25T04:19:07;10.27;;;5.40;;
26756;SDS011;23848;49.798;10.228;2022-11-25T04:21:36;13.43;;;6.20;;
26756;SDS011;23848;49.798;10.228;2022-11-25T04:24:06;11.35;;;6.85;;
26756;SDS011;23848;49.798;10.228;2022-11-25T04:26:34;10.00;;;6.22;;
26756;SDS011;23848;49.798;10.228;2022-11-25T04:29:03;11.65;;;6.18;;
26756;SDS011;23848;49.798;10.228;2022-11-25T04:31:31;12.93;;;6.60;;
26756;SDS011;23848;49.798;10.228;2022-11-25T04:34:00;11.40;;;6.45;;
26756;SDS011;23848;49.798;10.228;2022-11-25T04:36:28;14.40;;;6.80;;
26756;SDS011;23848;49.798;10.228;2022-11-25T04:38:56;10.93;;;5.90;;
26756;SDS011;23848;49.798;10.228;2022-11-25T04:41:26;10.80;;;5.15;;
26756;SDS011;23848;49.798;10.228;2022-11-25T04:43:55;9.07;;;5.57;;
26756;SDS011;23848;49.798;10.228;2022-11-25T04:46:23;14.32;;;7.03;;
26756;SDS011;23848;49.798;10.228;2022-11-25T04:48:54;12.82;;;7.25;;
26756;SDS011;23848;49.798;10.228;2022-11-25T04:51:22;11.95;;;7.38;;
26756;SDS011;23848;49.798;10.228;2022-11-25T04:53:51;11.48;;;7.28;;
26756;SDS011;23848;49.798;10.228;2022-11-25T04:56:19;13.15;;;7.05;;
26756;SDS011;23848;49.798;10.228;2022-11-25T04:58:49;12.52;;;6.28;;
26756;SDS011;23848;49.798;10.228;2022-11-25T05:01:35;12.40;;;7.50;;
26756;SDS011;23848;49.798;10.228;2022-11-25T05:04:04;12.55;;;6.63;;
26756;SDS011;23848;49.798;10.228;2022-11-25T05:06:32;12.15;;;6.75;;
26756;SDS011;23848;49.798;10.228;2022-11-25T05:09:01;10.70;;;6.80;;
26756;SDS011;23848;49.798;10.228;2022-11-25T05:11:30;11.10;;;6.70;;
26756;SDS011;23848;49.798;10.228;2022-11-25T05:13:59;8.68;;;6.20;;
26756;SDS011;23848;49.798;10.228;2022-11-25T05:16:28;11.02;;;6.78;;
26756;SDS011;23848;49.798;10.228;2022-11-25T05:18:56;11.25;;;7.45;;
26756;SDS011;23848;49.798;10.228;2022-11-25T05:21:25;16.58;;;8.52;;
26756;SDS011;23848;49.798;10.228;2022-11-25T05:23:53;17.85;;;9.13;;
26756;SDS011;23848;49.798;10.228;2022-11-25T05:26:22;14.32;;;8.48;;
26756;SDS011;23848;49.798;10.228;2022-11-25T05:28:50;14.10;;;8.38;;
26756;SDS011;23848;49.798;10.228;2022-11-25T05:31:20;15.55;;;7.97;;
26756;SDS011;23848;49.798;10.228;2022-11-25T05:33:48;11.70;;;7.18;;
26756;SDS011;23848;49.798;10.228;2022-11-25T05:36:17;11.32;;;7.00;;
26756;SDS011;23848;49.798;10.228;2022-11-25T05:38:45;12.73;;;7.32;;
26756;SDS011;23848;49.798;10.228;2022-11-25T05:41:16;14.32;;;7.00;;
26756;SDS011;23848;49.798;10.228;2022-11-25T05:43:44;11.52;;;7.00;;
26756;SDS011;23848;49.798;10.228;2022-11-25T05:46:13;14.05;;;7.68;;
26756;SDS011;23848;49.798;10.228;2022-11-25T05:48:43;12.02;;;7.75;;
26756;SDS011;23848;49.798;10.228;2022-11-25T05:51:11;11.73;;;6.75;;
26756;SDS011;23848;49.798;10.228;2022-11-25T05:53:40;15.77;;;8.52;;
26756;SDS011;23848;49.798;10.228;2022-11-25T05:56:08;24.85;;;15.05;;
26756;SDS011;23848;49.798;10.228;2022-11-25T05:58:37;25.30;;;14.23;;
26756;SDS011;23848;49.798;10.228;2022-11-25T06:01:06;19.50;;;11.88;;
26756;SDS011;23848;49.798;10.228;2022-11-25T06:03:35;21.65;;;12.00;;
26756;SDS011;23848;49.798;10.228;2022-11-25T06:06:05;21.25;;;11.40;;
26756;SDS011;23848;49.798;10.228;2022-11-25T06:08:34;25.38;;;13.88;;
26756;SDS011;23848;49.798;10.228;2022-11-25T06:11:04;27.75;;;14.93;;
26756;SDS011;23848;49.798;10.228;2022-11-25T06:13:33;25.83;;;13.70;;
26756;SDS011;23848;49.798;10.228;2022-11-25T06:16:05;36.55;;;17.48;;
26756;SDS011;23848;49.798;10.228;2022-11-25T06:18:34;38.58;;;18.13;;
26756;SDS011;23848;49.798;10.228;2022-11-25T06:21:03;33.80;;;17.08;;
26756;SDS011;23848;49.798;10.228;2022-11-25T06:23:33;29.98;;;15.38;;
26756;SDS011;23848;49.798;10.228;2022-11-25T06:26:03;27.70;;;12.88;;
26756;SDS011;23848;49.798;10.228;2022-11-25T06:28:31;28.73;;;13.82;;
26756;SDS011;23848;49.798;10.228;2022-11-25T06:31:03;27.27;;;14.15;;
26756;SDS011;23848;49.798;10.228;2022-11-25T06:33:32;27.63;;;13.95;;
26756;SDS011;23848;49.798;10.228;2022-11-25T06:36:03;30.75;;;16.65;;
26756;SDS011;23848;49.798;10.228;2022-11-25T06:38:34;22.88;;;14.18;;
26756;SDS011;23848;49.798;10.228;2022-11-25T06:41:02;16.52;;;11.43;;
26756;SDS011;23848;49.798;10.228;2022-11-25T06:43:31;21.65;;;11.18;;
26756;SDS011;23848;49.798;10.228;2022-11-25T06:46:00;23.05;;;10.98;;
26756;SDS011;23848;49.798;10.228;2022-11-25T06:48:29;16.98;;;11.60;;
26756;SDS011;23848;49.798;10.228;2022-11-25T06:50:58;21.15;;;14.93;;
26756;SDS011;23848;49.798;10.228;2022-11-25T06:53:26;24.13;;;14.80;;
26756;SDS011;23848;49.798;10.228;2022-11-25T06:56:07;23.75;;;13.85;;
26756;SDS011;23848;49.798;10.228;2022-11-25T06:58:36;25.92;;;15.82;;
26756;SDS011;23848;49.798;10.228;2022-11-25T07:01:05;19.35;;;13.50;;
26756;SDS011;23848;49.798;10.228;2022-11-25T07:03:34;19.02;;;12.75;;
26756;SDS011;23848;49.798;10.228;2022-11-25T07:06:03;19.05;;;12.10;;
26756;SDS011;23848;49.798;10.228;2022-11-25T07:08:31;17.40;;;9.63;;
26756;SDS011;23848;49.798;10.228;2022-11-25T07:11:03;17.15;;;8.88;;
26756;SDS011;23848;49.798;10.228;2022-11-25T07:13:33;18.88;;;10.02;;
26756;SDS011;23848;49.798;10.228;2022-11-25T07:16:02;15.80;;;9.43;;
26756;SDS011;23848;49.798;10.228;2022-11-25T07:18:31;14.32;;;9.48;;
26756;SDS011;23848;49.798;10.228;2022-11-25T07:21:00;15.82;;;9.38;;
26756;SDS011;23848;49.798;10.228;2022-11-25T07:23:29;18.88;;;9.02;;
26756;SDS011;23848;49.798;10.228;2022-11-25T07:26:00;22.98;;;9.18;;
26756;SDS011;23848;49.798;10.228;2022-11-25T07:28:29;15.98;;;8.63;;
26756;SDS011;23848;49.798;10.228;2022-11-25T07:31:04;17.55;;;11.40;;
26756;SDS011;23848;49.798;10.228;2022-11-25T07:33:50;17.58;;;9.85;;
26756;SDS011;23848;49.798;10.228;2022-11-25T07:36:18;20.80;;;12.30;;
26756;SDS011;23848;49.798;10.228;2022-11-25T07:38:47;18.98;;;12.18;;
26756;SDS011;23848;49.798;10.228;2022-11-25T07:41:16;19.10;;;12.10;;
26756;SDS011;23848;49.798;10.228;2022-11-25T07:43:46;27.95;;;13.15;;
26756;SDS011;23848;49.798;10.228;2022-11-25T07:46:17;30.65;;;14.60;;
26756;SDS011;23848;49.798;10.228;2022-11-25T07:48:52;24.38;;;14.00;;
26756;SDS011;23848;49.798;10.228;2022-11-25T07:51:21;21.88;;;12.90;;
26756;SDS011;23848;49.798;10.228;2022-11-25T07:53:50;24.83;;;15.60;;
26756;SDS011;23848;49.798;10.228;2022-11-25T07:56:19;26.58;;;16.38;;
26756;SDS011;23848;49.798;10.228;2022-11-25T07:58:48;31.70;;;18.92;;
26756;SDS011;23848;49.798;10.228;2022-11-25T08:01:18;36.72;;;21.48;;
26756;SDS011;23848;49.798;10.228;2022-11-25T08:03:47;32.53;;;20.38;;
26756;SDS011;23848;49.798;10.228;2022-11-25T08:06:16;24.83;;;16.13;;
26756;SDS011;23848;49.798;10.228;2022-11-25T08:08:45;27.02;;;18.10;;
26756;SDS011;23848;49.798;10.228;2022-11-25T08:11:14;25.00;;;17.63;;
26756;SDS011;23848;49.798;10.228;2022-11-25T08:13:43;20.88;;;13.25;;
26756;SDS011;23848;49.798;10.228;2022-11-25T08:16:12;16.98;;;12.50;;
26756;SDS011;23848;49.798;10.228;2022-11-25T08:18:42;23.02;;;18.60;;
26756;SDS011;23848;49.798;10.228;2022-11-25T08:21:12;23.50;;;17.58;;
26756;SDS011;23848;49.798;10.228;2022-11-25T08:23:41;24.88;;;17.33;;
26756;SDS011;23848;49.798;10.228;2022-11-25T08:26:13;22.98;;;16.95;;
26756;SDS011;23848;49.798;10.228;2022-11-25T08:28:42;26.40;;;18.85;;
26756;SDS011;23848;49.798;10.228;2022-11-25T08:31:13;18.35;;;13.50;;
26756;SDS011;23848;49.798;10.228;2022-11-25T08:33:43;14.40;;;10.63;;
26756;SDS011;23848;49.798;10.228;2022-11-25T08:36:12;16.42;;;11.30;;
26756;SDS011;23848;49.798;10.228;2022-11-25T08:38:40;18.02;;;11.25;;
26756;SDS011;23848;49.798;10.228;2022-11-25T08:41:09;18.33;;;13.25;;
26756;SDS011;23848;49.798;10.228;2022-11-25T08:43:38;16.83;;;11.25;;
26756;SDS011;23848;49.798;10.228;2022-11-25T08:46:08;15.45;;;11.02;;
26756;SDS011;23848;49.798;10.228;2022-11-25T08:48:36;16.80;;;11.05;;
26756;SDS011;23848;49.798;10.228;2022-11-25T08:51:07;17.52;;;10.40;;
26756;SDS011;23848;49.798;10.228;2022-11-25T08:53:37;17.40;;;13.30;;
26756;SDS011;23848;49.798;10.228;2022-11-25T08:56:06;15.98;;;11.82;;
26756;SDS011;23848;49.798;10.228;2022-11-25T08:58:35;25.65;;;18.40;;
26756;SDS011;23848;49.798;10.228;2022-11-25T09:01:03;16.35;;;13.02;;
26756;SDS011;23848;49.798;10.228;2022-11-25T09:03:32;19.58;;;14.32;;
26756;SDS011;23848;49.798;10.228;2022-11-25T09:06:01;15.13;;;12.32;;
26756;SDS011;23848;49.798;10.228;2022-11-25T09:08:31;17.05;;;11.82;;
26756;SDS011;23848;49.798;10.228;2022-11-25T09:10:59;12.90;;;8.55;;
26756;SDS011;23848;49.798;10.228;2022-11-25T09:13:28;14.30;;;10.20;;
26756;SDS011;23848;49.798;10.228;2022-11-25T09:16:02;12.95;;;10.40;;
26756;SDS011;23848;49.798;10.228;2022-11-25T09:18:31;11.93;;;9.38;;
26756;SDS011;23848;49.798;10.228;2022-11-25T09:21:05;12.45;;;9.10;;
26756;SDS011;23848;49.798;10.228;2022-11-25T09:23:35;11.82;;;8.02;;
26756;SDS011;23848;49.798;10.228;2022-11-25T09:26:04;12.80;;;8.80;;
26756;SDS011;23848;49.798;10.228;2022-11-25T09:28:34;13.57;;;9.23;;
26756;SDS011;23848;49.798;10.228;2022-11-25T09:31:06;12.43;;;9.77;;
26756;SDS011;23848;49.798;10.228;2022-11-25T09:33:35;14.30;;;9.63;;
26756;SDS011;23848;49.798;10.228;2022-11-25T09:36:04;14.75;;;11.30;;
26756;SDS011;23848;49.798;10.228;2022-11-25T09:38:32;19.05;;;14.77;;
26756;SDS011;23848;49.798;10.228;2022-11-25T09:41:12;23.17;;;16.60;;
26756;SDS011;23848;49.798;10.228;2022-11-25T09:44:04;18.38;;;15.15;;
26756;SDS011;23848;49.798;10.228;2022-11-25T09:46:54;19.98;;;12.65;;
26756;SDS011;23848;49.798;10.228;2022-11-25T09:51:57;14.38;;;10.52;;
26756;SDS011;23848;49.798;10.228;2022-11-25T09:54:31;14.20;;;9.60;;
26756;SDS011;23848;49.798;10.228;2022-11-25T09:57:09;14.93;;;10.70;;
26756;SDS011;23848;49.798;10.228;2022-11-25T09:59:38;15.57;;;11.05;;
26756;SDS011;23848;49.798;10.228;2022-11-25T10:02:11;14.98;;;10.80;;
26756;SDS011;23848;49.798;10.228;2022-11-25T10:04:45;12.88;;;9.73;;
26756;SDS011;23848;49.798;10.228;2022-11-25T10:07:16;13.63;;;10.05;;
26756;SDS011;23848;49.798;10.228;2022-11-25T10:09:45;15.32;;;9.65;;
26756;SDS011;23848;49.798;10.228;2022-11-25T10:12:18;14.15;;;9.77;;
26756;SDS011;23848;49.798;10.228;2022-11-25T10:14:52;15.40;;;9.80;;
26756;SDS011;23848;49.798;10.228;2022-11-25T10:17:25;13.65;;;9.13;;
26756;SDS011;23848;49.798;10.228;2022-11-25T10:19:59;14.10;;;9.88;;
26756;SDS011;23848;49.798;10.228;2022-11-25T10:22:29;15.45;;;10.32;;
26756;SDS011;23848;49.798;10.228;2022-11-25T10:25:00;16.63;;;13.35;;
26756;SDS011;23848;49.798;10.228;2022-11-25T10:27:34;23.67;;;17.20;;
26756;SDS011;23848;49.798;10.228;2022-11-25T10:30:06;24.60;;;15.70;;
26756;SDS011;23848;49.798;10.228;2022-11-25T10:32:42;23.27;;;13.20;;
26756;SDS011;23848;49.798;10.228;2022-11-25T10:35:16;51.20;;;28.02;;
26756;SDS011;23848;49.798;10.228;2022-11-25T10:37:49;18.50;;;12.48;;
26756;SDS011;23848;49.798;10.228;2022-11-25T10:40:20;10.73;;;8.73;;
26756;SDS011;23848;49.798;10.228;2022-11-25T10:42:50;12.05;;;9.60;;
26756;SDS011;23848;49.798;10.228;2022-11-25T10:45:19;11.98;;;9.15;;
26756;SDS011;23848;49.798;10.228;2022-11-25T10:47:54;16.50;;;12.77;;
26756;SDS011;23848;49.798;10.228;2022-11-25T10:50:28;13.57;;;10.63;;
26756;SDS011;23848;49.798;10.228;2022-11-25T10:53:01;11.48;;;8.95;;
26756;SDS011;23848;49.798;10.228;2022-11-25T10:55:30;11.57;;;9.10;;
26756;SDS011;23848;49.798;10.228;2022-11-25T10:58:07;11.43;;;8.90;;
26756;SDS011;23848;49.798;10.228;2022-11-25T11:00:46;14.10;;;9.43;;
26756;SDS011;23848;49.798;10.228;2022-11-25T11:03:18;12.63;;;10.07;;
26756;SDS011;23848;49.798;10.228;2022-11-25T11:05:49;14.35;;;11.65;;
26756;SDS011;23848;49.798;10.228;2022-11-25T11:08:19;14.15;;;11.55;;
26756;SDS011;23848;49.798;10.228;2022-11-25T11:11:08;15.82;;;10.93;;
26756;SDS011;23848;49.798;10.228;2022-11-25T11:13:39;13.35;;;10.75;;
26756;SDS011;23848;49.798;10.228;2022-11-25T11:16:19;13.73;;;11.50;;
26756;SDS011;23848;49.798;10.228;2022-11-25T11:18:49;18.95;;;12.90;;
26756;SDS011;23848;49.798;10.228;2022-11-25T11:21:21;21.52;;;15.10;;
26756;SDS011;23848;49.798;10.228;2022-11-25T11:23:50;87.13;;;42.92;;
26756;SDS011;23848;49.798;10.228;2022-11-25T11:26:22;39.13;;;22.45;;
26756;SDS011;23848;49.798;10.228;2022-11-25T11:29:03;31.52;;;19.38;;
26756;SDS011;23848;49.798;10.228;2022-11-25T11:31:39;18.17;;;12.27;;
26756;SDS011;23848;49.798;10.228;2022-11-25T11:34:22;17.23;;;11.57;;
26756;SDS011;23848;49.798;10.228;2022-11-25T11:36:56;17.90;;;12.85;;
26756;SDS011;23848;49.798;10.228;2022-11-25T11:39:34;15.38;;;11.93;;
26756;SDS011;23848;49.798;10.228;2022-11-25T11:42:06;21.15;;;15.35;;
26756;SDS011;23848;49.798;10.228;2022-11-25T11:44:39;28.25;;;19.67;;
26756;SDS011;23848;49.798;10.228;2022-11-25T11:47:13;38.88;;;23.08;;
26756;SDS011;23848;49.798;10.228;2022-11-25T11:49:46;25.75;;;16.90;;
26756;SDS011;23848;49.798;10.228;2022-11-25T11:52:20;17.67;;;13.27;;
26756;SDS011;23848;49.798;10.228;2022-11-25T11:54:52;14.95;;;12.05;;
26756;SDS011;23848;49.798;10.228;2022-11-25T11:57:24;19.15;;;12.68;;
26756;SDS011;23848;49.798;10.228;2022-11-25T11:59:58;14.90;;;11.20;;
26756;SDS011;23848;49.798;10.228;2022-11-25T12:02:32;15.77;;;10.20;;
26756;SDS011;23848;49.798;10.228;2022-11-25T12:05:12;16.73;;;11.30;;
26756;SDS011;23848;49.798;10.228;2022-11-25T12:07:43;30.67;;;24.05;;
26756;SDS011;23848;49.798;10.228;2022-11-25T12:10:16;19.45;;;13.75;;
26756;SDS011;23848;49.798;10.228;2022-11-25T12:12:48;19.75;;;13.23;;
26756;SDS011;23848;49.798;10.228;2022-11-25T12:15:20;17.17;;;12.55;;
26756;SDS011;23848;49.798;10.228;2022-11-25T12:17:51;19.15;;;13.32;;
26756;SDS011;23848;49.798;10.228;2022-11-25T12:20:24;22.10;;;14.98;;
26756;SDS011;23848;49.798;10.228;2022-11-25T12:22:56;17.38;;;12.25;;
26756;SDS011;23848;49.798;10.228;2022-11-25T12:25:26;16.48;;;11.15;;
26756;SDS011;23848;49.798;10.228;2022-11-25T12:27:58;16.20;;;12.65;;
26756;SDS011;23848;49.798;10.228;2022-11-25T12:30:31;14.88;;;10.23;;
26756;SDS011;23848;49.798;10.228;2022-11-25T12:33:03;14.32;;;10.93;;
26756;SDS011;23848;49.798;10.228;2022-11-25T12:35:35;14.52;;;11.25;;
26756;SDS011;23848;49.798;10.228;2022-11-25T12:38:10;17.57;;;12.30;;
26756;SDS011;23848;49.798;10.228;2022-11-25T12:40:41;14.88;;;10.52;;
26756;SDS011;23848;49.798;10.228;2022-11-25T12:43:16;14.50;;;10.52;;
26756;SDS011;23848;49.798;10.228;2022-11-25T12:45:54;15.07;;;10.68;;
26756;SDS011;23848;49.798;10.228;2022-11-25T12:48:28;22.58;;;14.00;;
26756;SDS011;23848;49.798;10.228;2022-11-25T12:50:58;16.08;;;12.02;;
26756;SDS011;23848;49.798;10.228;2022-11-25T12:53:31;15.00;;;10.38;;
26756;SDS011;23848;49.798;10.228;2022-11-25T12:56:03;13.13;;;10.40;;
26756;SDS011;23848;49.798;10.228;2022-11-25T12:58:44;19.33;;;14.50;;
26756;SDS011;23848;49.798;10.228;2022-11-25T13:01:31;24.42;;;17.55;;
26756;SDS011;23848;49.798;10.228;2022-11-25T13:09:45;20.10;;;15.60;;
26756;SDS011;23848;49.798;10.228;2022-11-25T13:12:19;20.27;;;14.85;;
26756;SDS011;23848;49.798;10.228;2022-11-25T13:15:00;20.13;;;14.65;;
26756;SDS011;23848;49.798;10.228;2022-11-25T13:17:35;17.42;;;14.43;;
26756;SDS011;23848;49.798;10.228;2022-11-25T13:22:59;16.02;;;13.20;;
26756;SDS011;23848;49.798;10.228;2022-11-25T13:25:28;16.52;;;13.10;;
26756;SDS011;23848;49.798;10.228;2022-11-25T13:27:57;18.95;;;12.68;;
26756;SDS011;23848;49.798;10.228;2022-11-25T13:30:35;19.52;;;13.90;;
26756;SDS011;23848;49.798;10.228;2022-11-25T13:35:53;17.63;;;12.52;;
26756;SDS011;23848;49.798;10.228;2022-11-25T13:41:21;14.95;;;11.25;;
26756;SDS011;23848;49.798;10.228;2022-11-25T13:43:51;15.93;;;12.45;;
26756;SDS011;23848;49.798;10.228;2022-11-25T13:46:26;18.17;;;13.57;;
26756;SDS011;23848;49.798;10.228;2022-11-25T13:48:54;21.52;;;15.48;;
26756;SDS011;23848;49.798;10.228;2022-11-25T13:51:24;20.95;;;14.88;;
26756;SDS011;23848;49.798;10.228;2022-11-25T13:53:53;19.95;;;14.10;;
26756;SDS011;23848;49.798;10.228;2022-11-25T13:56:27;16.30;;;10.88;;
26756;SDS011;23848;49.798;10.228;2022-11-25T14:01:51;13.10;;;9.95;;
26756;SDS011;23848;49.798;10.228;2022-11-25T14:04:21;14.98;;;11.32;;
26756;SDS011;23848;49.798;10.228;2022-11-25T14:07:02;14.30;;;10.40;;
26756;SDS011;23848;49.798;10.228;2022-11-25T14:09:36;15.45;;;11.48;;
26756;SDS011;23848;49.798;10.228;2022-11-25T14:12:09;16.15;;;12.10;;
26756;SDS011;23848;49.798;10.228;2022-11-25T14:14:47;18.20;;;11.60;;
26756;SDS011;23848;49.798;10.228;2022-11-25T14:17:25;18.73;;;15.18;;
26756;SDS011;23848;49.798;10.228;2022-11-25T14:20:02;21.08;;;15.45;;
26756;SDS011;23848;49.798;10.228;2022-11-25T14:22:38;20.40;;;15.43;;
26756;SDS011;23848;49.798;10.228;2022-11-25T14:25:13;20.50;;;15.90;;
26756;SDS011;23848;49.798;10.228;2022-11-25T14:27:43;17.80;;;13.63;;
26756;SDS011;23848;49.798;10.228;2022-11-25T14:30:13;16.70;;;12.75;;
26756;SDS011;23848;49.798;10.228;2022-11-25T14:32:43;16.80;;;12.63;;
26756;SDS011;23848;49.798;10.228;2022-11-25T14:35:15;16.38;;;12.13;;
26756;SDS011;23848;49.798;10.228;2022-11-25T14:37:48;18.33;;;12.40;;
26756;SDS011;23848;49.798;10.228;2022-11-25T14:40:18;15.82;;;11.82;;
26756;SDS011;23848;49.798;10.228;2022-11-25T14:42:49;17.35;;;13.60;;
26756;SDS011;23848;49.798;10.228;2022-11-25T14:45:20;17.15;;;12.00;;
26756;SDS011;23848;49.798;10.228;2022-11-25T14:47:49;18.17;;;10.80;;
26756;SDS011;23848;49.798;10.228;2022-11-25T14:50:17;21.73;;;13.13;;
26756;SDS011;23848;49.798;10.228;2022-11-25T14:53:05;15.02;;;10.05;;
26756;SDS011;23848;49.798;10.228;2022-11-25T14:55:34;13.52;;;9.60;;
26756;SDS011;23848;49.798;10.228;2022-11-25T14:58:03;13.35;;;9.45;;